createdAt,value
2022-12-17T00:02:35.506Z,19.58
2022-12-17T00:05:21.075Z,20.00
2022-12-17T00:08:06.346Z,20.40
2022-12-17T00:10:51.759Z,18.92
2022-12-17T00:13:39.394Z,21.52
2022-12-17T00:16:25.535Z,20.60
2022-12-17T00:19:11.065Z,19.27
2022-12-17T00:21:56.422Z,21.25
2022-12-17T00:24:42.480Z,21.33
2022-12-17T00:27:27.884Z,20.15
2022-12-17T00:30:13.087Z,24.27
2022-12-17T00:32:58.443Z,22.23
2022-12-17T00:35:44.055Z,23.75
2022-12-17T00:38:37.248Z,24.50
2022-12-17T00:41:22.435Z,23.98
2022-12-17T00:44:07.802Z,21.45
2022-12-17T00:46:54.456Z,23.70
2022-12-17T00:49:41.195Z,25.38
2022-12-17T00:52:26.578Z,21.30
2022-12-17T00:55:11.956Z,22.48
2022-12-17T00:57:57.389Z,24.52
2022-12-17T01:00:42.747Z,21.05
2022-12-17T01:03:32.054Z,20.52
2022-12-17T01:06:22.050Z,20.98
2022-12-17T01:09:07.550Z,19.95
2022-12-17T01:11:52.906Z,17.77
2022-12-17T01:14:43.411Z,18.67
2022-12-17T01:17:29.499Z,19.10
2022-12-17T01:20:14.921Z,18.15
2022-12-17T01:23:00.386Z,18.00
2022-12-17T01:25:45.651Z,18.60
2022-12-17T01:28:31.271Z,18.95
2022-12-17T01:31:16.737Z,17.85
2022-12-17T01:34:02.091Z,18.35
2022-12-17T01:36:47.384Z,16.98
2022-12-17T01:39:32.841Z,16.55
2022-12-17T01:42:18.516Z,19.55
2022-12-17T01:45:14.066Z,21.35
2022-12-17T01:48:13.205Z,22.75
2022-12-17T01:51:21.558Z,19.33
2022-12-17T01:54:09.931Z,19.27
2022-12-17T01:56:59.207Z,17.73
2022-12-17T02:00:02.646Z,17.90
2022-12-17T02:02:59.004Z,21.83
2022-12-17T02:05:52.597Z,17.70
2022-12-17T02:08:52.872Z,17.33
2022-12-17T02:12:11.038Z,15.93
2022-12-17T02:15:05.761Z,20.73
2022-12-17T02:17:57.955Z,18.42
2022-12-17T02:21:02.795Z,18.48
2022-12-17T02:24:15.614Z,21.20
2022-12-17T02:27:08.362Z,21.90
2022-12-17T02:30:09.692Z,20.73
2022-12-17T02:33:07.251Z,18.95
2022-12-17T02:36:08.435Z,20.48
2022-12-17T02:38:53.758Z,19.10
2022-12-17T02:41:56.616Z,19.13
2022-12-17T02:44:42.889Z,21.77
2022-12-17T02:47:29.748Z,23.23
2022-12-17T02:50:15.387Z,19.60
2022-12-17T02:53:05.019Z,17.48
2022-12-17T02:55:51.359Z,19.67
2022-12-17T02:58:36.954Z,17.98
2022-12-17T03:01:22.797Z,16.92
2022-12-17T03:04:08.251Z,17.30
2022-12-17T03:06:53.462Z,17.25
2022-12-17T03:09:39.578Z,13.98
2022-12-17T03:12:25.435Z,16.08
2022-12-17T03:15:11.100Z,15.48
2022-12-17T03:17:56.404Z,16.50
2022-12-17T03:20:42.204Z,17.95
2022-12-17T03:23:29.326Z,16.13
2022-12-17T03:26:22.436Z,18.95
2022-12-17T03:29:07.840Z,18.88
2022-12-17T03:31:53.633Z,15.07
2022-12-17T03:34:38.973Z,13.35
2022-12-17T03:37:24.680Z,14.27
2022-12-17T03:40:10.003Z,13.80
2022-12-17T03:42:55.515Z,18.05
2022-12-17T03:45:41.270Z,15.15
2022-12-17T03:48:29.131Z,15.05
2022-12-17T03:51:15.297Z,14.05
2022-12-17T03:54:00.976Z,15.18
2022-12-17T03:56:46.771Z,15.40
2022-12-17T03:59:32.230Z,16.48
2022-12-17T04:02:17.824Z,16.02
2022-12-17T04:05:03.516Z,16.05
2022-12-17T04:07:48.922Z,13.13
2022-12-17T04:10:34.297Z,15.40
2022-12-17T04:13:19.754Z,16.45
2022-12-17T04:16:05.241Z,18.75
2022-12-17T04:18:50.570Z,17.08
2022-12-17T04:21:35.889Z,18.02
2022-12-17T04:24:21.198Z,18.10
2022-12-17T04:27:06.602Z,17.08
2022-12-17T04:29:51.877Z,16.15
2022-12-17T04:32:37.204Z,15.30
2022-12-17T04:35:23.231Z,16.05
2022-12-17T04:38:09.071Z,16.15
2022-12-17T04:40:54.667Z,27.27
2022-12-17T04:43:39.961Z,18.92
2022-12-17T04:46:25.786Z,15.15
2022-12-17T04:49:11.273Z,13.40
2022-12-17T04:51:56.504Z,10.80
2022-12-17T04:54:42.126Z,11.13
2022-12-17T04:57:27.593Z,13.48
2022-12-17T05:00:14.152Z,10.88
2022-12-17T05:02:59.617Z,12.20
2022-12-17T05:05:45.545Z,14.85
2022-12-17T05:08:30.900Z,21.40
2022-12-17T05:11:21.660Z,32.92
2022-12-17T05:14:07.187Z,24.02
2022-12-17T05:16:52.650Z,16.98
2022-12-17T05:19:37.932Z,13.50
2022-12-17T05:22:23.442Z,13.15
2022-12-17T05:25:09.447Z,10.70
2022-12-17T05:27:54.813Z,8.25
2022-12-17T05:30:40.133Z,10.85
2022-12-17T05:33:25.520Z,10.35
2022-12-17T05:36:11.052Z,9.82
2022-12-17T05:38:56.598Z,8.82
2022-12-17T05:41:42.364Z,11.43
2022-12-17T05:44:27.692Z,8.60
2022-12-17T05:47:12.936Z,8.82
2022-12-17T05:49:58.391Z,8.70
2022-12-17T05:52:43.889Z,8.40
2022-12-17T05:55:29.475Z,9.98
2022-12-17T05:58:26.687Z,10.07
2022-12-17T06:01:16.681Z,8.63
2022-12-17T06:04:02.469Z,8.75
2022-12-17T06:06:48.434Z,9.60
2022-12-17T06:09:33.761Z,9.20
2022-12-17T06:12:19.753Z,8.63
2022-12-17T06:15:05.220Z,8.93
2022-12-17T06:17:50.631Z,10.32
2022-12-17T06:20:36.065Z,11.38
2022-12-17T06:23:24.240Z,10.93
2022-12-17T06:26:13.858Z,12.20
2022-12-17T06:29:00.327Z,10.48
2022-12-17T06:31:46.369Z,9.80
2022-12-17T06:34:32.194Z,10.20
2022-12-17T06:37:17.608Z,8.40
2022-12-17T06:40:02.895Z,9.30
2022-12-17T06:42:48.357Z,10.07
2022-12-17T06:45:34.002Z,8.90
2022-12-17T06:48:27.442Z,8.52
2022-12-17T06:51:13.984Z,8.67
2022-12-17T06:54:00.848Z,10.85
2022-12-17T06:56:46.773Z,13.43
2022-12-17T06:59:32.068Z,13.43
2022-12-17T07:02:17.644Z,17.33
2022-12-17T07:05:03.035Z,16.70
2022-12-17T07:07:48.769Z,11.50
2022-12-17T07:10:34.230Z,10.77
2022-12-17T07:13:26.107Z,10.35
2022-12-17T07:16:12.448Z,10.13
2022-12-17T07:18:58.309Z,12.52
2022-12-17T07:21:43.728Z,10.38
2022-12-17T07:24:29.468Z,9.57
2022-12-17T07:27:14.808Z,8.80
2022-12-17T07:30:00.204Z,10.98
2022-12-17T07:32:45.753Z,9.25
2022-12-17T07:35:31.416Z,11.13
2022-12-17T07:38:22.260Z,11.10
2022-12-17T07:41:07.617Z,10.23
2022-12-17T07:43:53.705Z,11.10
2022-12-17T07:46:39.528Z,9.25
2022-12-17T07:49:26.086Z,10.13
2022-12-17T07:52:12.183Z,9.95
2022-12-17T07:54:58.026Z,11.60
2022-12-17T07:57:43.885Z,11.38
2022-12-17T08:00:29.698Z,11.23
2022-12-17T08:03:19.707Z,11.10
2022-12-17T08:06:05.108Z,11.63
2022-12-17T08:08:50.419Z,10.10
2022-12-17T08:11:35.888Z,10.65
2022-12-17T08:14:21.276Z,12.23
2022-12-17T08:17:06.855Z,10.02
2022-12-17T08:19:52.316Z,10.68
2022-12-17T08:22:37.647Z,10.68
2022-12-17T08:25:23.606Z,9.32
2022-12-17T08:28:48.587Z,10.52
2022-12-17T08:31:20.996Z,11.55
2022-12-17T08:34:08.079Z,11.65
2022-12-17T08:36:54.006Z,13.85
2022-12-17T08:39:39.520Z,11.60
2022-12-17T08:42:24.837Z,15.00
2022-12-17T08:45:10.248Z,12.65
2022-12-17T08:47:59.220Z,15.65
2022-12-17T08:50:49.351Z,9.70
2022-12-17T08:53:35.193Z,12.63
2022-12-17T08:56:21.255Z,12.93
2022-12-17T08:59:06.452Z,14.63
2022-12-17T09:01:51.854Z,18.40
2022-12-17T09:04:37.442Z,18.10
2022-12-17T09:07:22.803Z,16.95
2022-12-17T09:10:08.272Z,19.02
2022-12-17T09:12:53.795Z,18.90
2022-12-17T09:15:39.234Z,18.60
2022-12-17T09:18:24.585Z,17.02
2022-12-17T09:21:13.776Z,18.70
2022-12-17T09:23:59.656Z,16.40
2022-12-17T09:26:45.080Z,17.38
2022-12-17T09:29:30.541Z,13.20
2022-12-17T09:32:16.035Z,15.75
2022-12-17T09:35:01.567Z,19.40
2022-12-17T09:37:46.991Z,17.95
2022-12-17T09:40:39.921Z,19.08
2022-12-17T09:43:39.907Z,16.70
2022-12-17T09:46:40.517Z,15.48
2022-12-17T09:49:35.822Z,18.83
2022-12-17T09:52:33.003Z,18.05
2022-12-17T09:55:19.888Z,19.48
2022-12-17T09:58:07.880Z,18.30
2022-12-17T10:00:59.156Z,19.05
2022-12-17T10:03:48.069Z,17.75
2022-12-17T10:06:53.712Z,19.80
2022-12-17T10:09:39.125Z,21.33
2022-12-17T10:12:33.675Z,17.55
2022-12-17T10:15:19.614Z,18.73
2022-12-17T10:18:05.039Z,19.08
2022-12-17T10:21:02.099Z,18.40
2022-12-17T10:23:50.289Z,15.75
2022-12-17T10:26:44.469Z,17.38
2022-12-17T10:29:43.863Z,19.23
2022-12-17T10:32:35.606Z,26.15
2022-12-17T10:35:48.706Z,23.88
2022-12-17T10:38:47.327Z,21.10
2022-12-17T10:41:53.180Z,22.15
2022-12-17T10:44:45.191Z,22.10
2022-12-17T10:47:39.393Z,23.30
2022-12-17T10:50:28.083Z,24.65
2022-12-17T10:53:13.515Z,20.65
2022-12-17T10:56:15.012Z,24.67
2022-12-17T10:59:07.603Z,22.10
2022-12-17T11:01:53.324Z,25.42
2022-12-17T11:04:44.869Z,29.35
2022-12-17T11:07:36.456Z,24.20
2022-12-17T11:10:23.831Z,27.20
2022-12-17T11:13:15.368Z,24.40
2022-12-17T11:16:20.032Z,25.83
2022-12-17T11:19:21.472Z,25.05
2022-12-17T11:22:11.144Z,24.70
2022-12-17T11:25:02.872Z,24.23
2022-12-17T11:27:54.651Z,24.38
2022-12-17T11:30:40.480Z,27.42
2022-12-17T11:33:49.026Z,29.17
2022-12-17T11:36:42.087Z,25.25
2022-12-17T11:39:48.839Z,24.10
2022-12-17T11:42:44.307Z,27.60
2022-12-17T11:45:45.397Z,27.63
2022-12-17T11:49:26.408Z,25.27
2022-12-17T11:52:25.719Z,24.35
2022-12-17T11:55:26.040Z,25.15
2022-12-17T11:58:22.995Z,22.50
2022-12-17T12:01:33.233Z,25.70
2022-12-17T12:04:21.840Z,28.55
2022-12-17T12:07:19.349Z,25.85
2022-12-17T12:10:16.063Z,25.88
2022-12-17T12:13:10.626Z,32.35
2022-12-17T12:18:58.742Z,24.27
2022-12-17T12:21:57.106Z,26.90
2022-12-17T12:24:52.323Z,24.92
2022-12-17T12:27:58.942Z,26.42
2022-12-17T12:30:53.454Z,25.23
2022-12-17T12:36:50.199Z,26.13
2022-12-17T12:39:45.332Z,23.50
2022-12-17T12:42:42.256Z,25.10
2022-12-17T12:46:02.452Z,28.75
2022-12-17T12:49:03.589Z,27.77
2022-12-17T12:51:53.310Z,30.10
2022-12-17T12:54:49.253Z,28.48
2022-12-17T12:57:52.463Z,30.90
2022-12-17T13:00:46.485Z,29.60
2022-12-17T13:03:54.272Z,30.15
2022-12-17T13:06:45.441Z,26.60
2022-12-17T13:09:15.386Z,29.15
2022-12-17T13:11:46.378Z,29.05
2022-12-17T13:14:24.305Z,32.97
2022-12-17T13:16:55.695Z,31.05
2022-12-17T13:19:31.310Z,29.48
2022-12-17T13:22:11.748Z,31.90
2022-12-17T13:24:38.727Z,27.60
2022-12-17T13:27:25.849Z,32.85
2022-12-17T13:29:52.675Z,29.73
2022-12-17T13:32:45.761Z,31.15
2022-12-17T13:35:43.957Z,34.58
2022-12-17T13:38:19.913Z,32.05
2022-12-17T13:41:09.587Z,31.05
2022-12-17T13:43:49.471Z,30.08
2022-12-17T13:46:28.480Z,30.30
2022-12-17T13:49:01.253Z,30.15
2022-12-17T13:51:33.912Z,34.38
2022-12-17T13:54:03.291Z,31.70
2022-12-17T13:56:37.662Z,33.33
2022-12-17T13:59:09.286Z,28.80
2022-12-17T14:01:46.252Z,30.50
2022-12-17T14:04:33.562Z,31.35
2022-12-17T14:07:04.704Z,31.33
2022-12-17T14:09:42.741Z,35.08
2022-12-17T14:12:23.915Z,29.88
2022-12-17T14:14:59.865Z,30.13
2022-12-17T14:17:29.044Z,32.97
2022-12-17T14:20:05.158Z,31.48
2022-12-17T14:22:38.964Z,29.45
2022-12-17T14:25:14.839Z,34.00
2022-12-17T14:27:49.889Z,30.08
2022-12-17T14:31:02.589Z,28.33
2022-12-17T14:33:33.421Z,27.67
2022-12-17T14:36:25.889Z,28.38
2022-12-17T14:38:56.145Z,29.95
2022-12-17T14:41:44.551Z,31.52
2022-12-17T14:44:25.015Z,30.77
2022-12-17T14:47:08.753Z,28.88
2022-12-17T14:49:39.555Z,30.40
2022-12-17T14:52:14.492Z,32.75
2022-12-17T14:54:47.591Z,30.38
2022-12-17T14:57:22.663Z,33.20
2022-12-17T14:59:50.793Z,38.42
2022-12-17T15:02:23.957Z,34.42
2022-12-17T15:04:52.165Z,31.15
2022-12-17T15:07:27.309Z,34.45
2022-12-17T15:09:55.488Z,32.55
2022-12-17T15:12:23.901Z,32.67
2022-12-17T15:14:50.890Z,33.03
2022-12-17T15:17:17.950Z,34.97
2022-12-17T15:19:44.812Z,34.40
2022-12-17T15:22:16.820Z,33.00
2022-12-17T15:24:45.476Z,32.38
2022-12-17T15:27:17.035Z,34.35
2022-12-17T15:29:45.879Z,35.13
2022-12-17T15:32:19.597Z,36.78
2022-12-17T15:34:47.006Z,34.03
2022-12-17T15:37:17.014Z,36.80
2022-12-17T15:39:45.621Z,38.20
2022-12-17T15:42:31.162Z,38.80
2022-12-17T15:44:57.954Z,34.13
2022-12-17T15:47:24.742Z,34.50
2022-12-17T15:49:51.571Z,33.00
2022-12-17T15:52:18.356Z,32.70
2022-12-17T15:54:45.237Z,30.58
2022-12-17T15:57:18.255Z,32.90
2022-12-17T15:59:45.508Z,30.27
2022-12-17T16:02:12.812Z,30.60
2022-12-17T16:04:40.902Z,30.63
2022-12-17T16:07:08.060Z,35.75
2022-12-17T16:09:34.964Z,33.20
2022-12-17T16:12:01.986Z,35.42
2022-12-17T16:14:28.978Z,27.65
2022-12-17T16:16:56.304Z,30.88
2022-12-17T16:19:24.547Z,28.17
2022-12-17T16:21:51.801Z,33.00
2022-12-17T16:24:19.837Z,30.33
2022-12-17T16:26:46.911Z,30.83
2022-12-17T16:29:14.926Z,31.17
2022-12-17T16:31:42.047Z,29.73
2022-12-17T16:34:10.525Z,29.35
2022-12-17T16:36:37.471Z,36.25
2022-12-17T16:39:05.376Z,48.78
2022-12-17T16:41:32.524Z,55.83
2022-12-17T16:43:59.487Z,54.53
2022-12-17T16:46:30.990Z,59.08
2022-12-17T16:49:04.548Z,46.47
2022-12-17T16:53:59.581Z,38.47
2022-12-17T16:56:28.635Z,39.92
2022-12-17T16:58:56.373Z,35.70
2022-12-17T17:01:26.283Z,43.03
2022-12-17T17:03:53.545Z,37.60
2022-12-17T17:06:20.797Z,45.58
2022-12-17T17:08:47.778Z,47.63
2022-12-17T17:11:23.058Z,43.03
2022-12-17T17:13:52.171Z,43.15
2022-12-17T17:16:20.966Z,44.13
2022-12-17T17:18:48.324Z,42.33
2022-12-17T17:21:16.802Z,42.72
2022-12-17T17:23:44.154Z,44.80
2022-12-17T17:26:11.232Z,46.17
2022-12-17T17:28:38.920Z,43.35
2022-12-17T17:31:09.090Z,49.70
2022-12-17T17:33:38.669Z,49.25
2022-12-17T17:36:11.082Z,46.63
2022-12-17T17:38:40.022Z,48.85
2022-12-17T17:41:09.426Z,47.88
2022-12-17T17:43:36.206Z,46.67
2022-12-17T17:46:07.216Z,45.85
2022-12-17T17:48:35.283Z,48.80
2022-12-17T17:51:08.729Z,47.78
2022-12-17T17:53:35.930Z,43.95
2022-12-17T17:56:17.381Z,44.45
2022-12-17T17:58:47.319Z,44.80
2022-12-17T18:01:20.741Z,48.13
2022-12-17T18:03:47.719Z,49.60
2022-12-17T18:06:15.121Z,49.47
2022-12-17T18:08:42.828Z,42.70
2022-12-17T18:11:12.030Z,42.90
2022-12-17T18:13:57.762Z,44.70
2022-12-17T18:16:28.138Z,48.85
2022-12-17T18:18:59.213Z,43.72
2022-12-17T18:21:29.919Z,41.38
2022-12-17T18:24:04.069Z,40.78
2022-12-17T18:26:36.444Z,37.65
2022-12-17T18:29:11.273Z,42.90
2022-12-17T18:31:38.842Z,45.90
2022-12-17T18:34:06.999Z,46.95
2022-12-17T18:36:37.355Z,48.67
2022-12-17T18:39:09.031Z,44.92
2022-12-17T18:41:54.350Z,43.80
2022-12-17T18:44:21.368Z,49.30
2022-12-17T18:46:48.986Z,48.45
2022-12-17T18:49:18.722Z,43.72
2022-12-17T18:51:47.712Z,46.08
2022-12-17T18:54:21.258Z,46.20
2022-12-17T18:57:04.000Z,42.72
2022-12-17T18:59:31.424Z,43.13
2022-12-17T19:02:00.055Z,44.90
2022-12-17T19:04:27.507Z,50.03
2022-12-17T19:06:54.894Z,50.53
2022-12-17T19:09:31.340Z,50.75
2022-12-17T19:11:58.999Z,48.13
2022-12-17T19:14:26.277Z,48.50
2022-12-17T19:16:55.167Z,46.78
2022-12-17T19:19:23.361Z,43.67
2022-12-17T19:21:52.212Z,46.00
2022-12-17T19:24:21.536Z,48.42
2022-12-17T19:26:49.563Z,48.35
2022-12-17T19:29:17.701Z,46.83
2022-12-17T19:31:45.834Z,52.40
2022-12-17T19:34:15.030Z,48.78
2022-12-17T19:36:42.971Z,48.63
2022-12-17T19:39:15.233Z,49.00
2022-12-17T19:41:42.232Z,45.75
2022-12-17T19:44:12.993Z,51.00
2022-12-17T19:46:40.400Z,54.42
2022-12-17T19:49:08.573Z,55.50
2022-12-17T19:51:38.868Z,54.53
2022-12-17T19:54:08.733Z,48.13
2022-12-17T19:56:36.568Z,54.15
2022-12-17T19:59:07.381Z,50.50
2022-12-17T20:01:41.317Z,48.13
2022-12-17T20:06:36.519Z,41.88
2022-12-17T20:09:05.247Z,44.88
2022-12-17T20:11:35.876Z,50.42
2022-12-17T20:14:09.358Z,53.80
2022-12-17T20:16:46.739Z,35.78
2022-12-17T20:19:22.205Z,49.58
2022-12-17T20:21:50.066Z,46.22
2022-12-17T20:24:17.608Z,48.78
2022-12-17T20:26:46.413Z,49.08
2022-12-17T20:29:13.439Z,46.72
2022-12-17T20:31:44.378Z,44.72
2022-12-17T20:34:16.035Z,46.03
2022-12-17T20:36:43.808Z,47.60
2022-12-17T20:39:11.649Z,49.63
2022-12-17T20:41:40.298Z,49.92
2022-12-17T20:44:11.811Z,48.35
2022-12-17T20:46:41.190Z,46.17
2022-12-17T20:49:08.682Z,45.42
2022-12-17T20:51:35.731Z,46.72
2022-12-17T20:54:03.422Z,47.08
2022-12-17T20:56:33.584Z,43.45
2022-12-17T20:59:05.461Z,47.75
2022-12-17T21:01:34.730Z,43.80
2022-12-17T21:04:02.325Z,45.88
2022-12-17T21:06:37.172Z,54.67
2022-12-17T21:09:04.546Z,43.67
2022-12-17T21:11:33.275Z,46.17
2022-12-17T21:14:09.263Z,50.70
2022-12-17T21:16:37.485Z,42.88
2022-12-17T21:19:05.992Z,47.00
2022-12-17T21:21:36.007Z,45.63
2022-12-17T21:24:03.359Z,47.05
2022-12-17T21:26:32.882Z,47.67
2022-12-17T21:29:01.420Z,46.58
2022-12-17T21:31:31.143Z,41.63
2022-12-17T21:34:00.927Z,43.05
2022-12-17T21:36:30.048Z,40.00
2022-12-17T21:38:58.764Z,43.65
2022-12-17T21:41:29.455Z,43.65
2022-12-17T21:44:04.808Z,43.42
2022-12-17T21:46:32.458Z,38.78
2022-12-17T21:49:01.491Z,42.78
2022-12-17T21:51:29.496Z,41.50
2022-12-17T21:53:59.096Z,44.20
2022-12-17T21:56:26.614Z,45.63
2022-12-17T21:59:01.067Z,44.47
2022-12-17T22:01:31.894Z,43.28
2022-12-17T22:04:00.769Z,37.65
2022-12-17T22:06:34.832Z,38.95
2022-12-17T22:09:28.670Z,35.22
2022-12-17T22:12:17.090Z,35.15
2022-12-17T22:14:44.253Z,37.00
2022-12-17T22:17:11.108Z,40.33
2022-12-17T22:19:38.100Z,38.20
2022-12-17T22:22:04.915Z,39.38
2022-12-17T22:24:35.894Z,46.03
2022-12-17T22:27:03.683Z,36.50
2022-12-17T22:29:50.634Z,39.58
2022-12-17T22:32:35.835Z,37.63
2022-12-17T22:36:05.074Z,38.83
2022-12-17T22:41:26.941Z,38.10
2022-12-17T22:44:11.931Z,37.13
2022-12-17T22:44:41.941Z,33.08
2022-12-17T22:46:18.116Z,37.97
2022-12-17T22:48:45.231Z,34.88
2022-12-17T22:51:14.752Z,35.90
2022-12-17T22:53:51.167Z,32.30
2022-12-17T22:57:11.196Z,33.33
2022-12-17T22:59:06.933Z,33.00
2022-12-17T23:01:34.108Z,35.22
2022-12-17T23:04:02.769Z,43.88
2022-12-17T23:06:29.720Z,40.53
2022-12-17T23:08:57.582Z,40.30
2022-12-17T23:11:26.235Z,41.33
2022-12-17T23:13:53.881Z,37.42
2022-12-17T23:16:20.983Z,40.78
2022-12-17T23:18:49.704Z,36.33
2022-12-17T23:21:19.563Z,34.60
2022-12-17T23:23:46.852Z,35.13
2022-12-17T23:26:18.028Z,37.20
2022-12-17T23:28:45.647Z,39.30
2022-12-17T23:31:17.883Z,38.90
2022-12-17T23:33:45.339Z,43.65
2022-12-17T23:36:21.122Z,47.25
2022-12-17T23:38:48.465Z,45.53
2022-12-17T23:41:27.461Z,42.22
2022-12-17T23:43:54.666Z,37.50
2022-12-17T23:46:23.133Z,40.00
2022-12-17T23:48:50.964Z,41.53
2022-12-17T23:51:19.763Z,40.95
2022-12-17T23:53:46.608Z,45.17
2022-12-17T23:56:16.686Z,43.38
2022-12-17T23:58:45.644Z,42.55
